Weather reports worldwide

Advertisment
Albacete, Spain (8279): temperature & dewpoint: 01.08.2020 02:00:00 - 07.08.2020 02:00:00 (CEST)Albacete, Spain (8279): wind speed & gusts: 01.08.2020 02:00:00 - 07.08.2020 02:00:00 (CEST)Albacete, Spain (8279): wind direction: 01.08.2020 02:00:00 - 07.08.2020 02:00:00 (CEST)Albacete, Spain (8279): reduced air pressure: 01.08.2020 02:00:00 - 07.08.2020 02:00:00 (CEST)Albacete, Spain (8279): precipitation: 01.08.2020 02:00:00 - 07.08.2020 02:00:00 (CEST)
Date & Time tt [°C] td [°C] ff [km/h] ff [kn] fx [km/h] fx [kn] dd ppp [hPa] rr [mm]
07.08.2020 02:00:00 - - - - - - - - -
07.08.2020 01:00:00 24,3 14,1 5 3 18 10 E 1016,3 0,0
07.08.2020 00:00:00 25,4 13,3 7 4 24 13 SE 1015,7 0,0
06.08.2020 23:00:00 26,5 13,6 6 4 25 14 S 1014,7 0,0
06.08.2020 22:00:00 28,4 13,9 7 4 24 13 S 1013,4 0,0
06.08.2020 21:00:00 30,6 13,4 4 2 25 14 S 1012,1 0,0
06.08.2020 20:00:00 33,0 13,7 8 4 24 13 SSE 1010,9 -
06.08.2020 19:00:00 34,0 13,0 8 5 24 13 SE 1010,5 0,0
06.08.2020 18:00:00 35,2 12,8 7 4 20 11 SSE 1010,1 0,0
06.08.2020 17:00:00 35,4 13,0 5 3 30 16 SE 1010,4 0,0
06.08.2020 16:00:00 34,3 13,8 5 3 26 14 SSE 1011,4 0,0
06.08.2020 15:00:00 33,9 14,9 6 3 26 14 SE 1012,0 0,0
06.08.2020 14:00:00 31,8 15,3 9 5 31 17 SE 1012,9 -
06.08.2020 13:00:00 29,5 14,9 8 4 25 13 SE 1013,7 0,0
06.08.2020 12:00:00 27,3 13,9 9 5 27 15 SE 1014,4 0,0
06.08.2020 11:00:00 24,9 15,8 6 4 20 11 SE 1015,2 0,0
06.08.2020 10:00:00 22,6 18,2 7 4 22 12 ESE 1015,8 0,0
06.08.2020 09:00:00 21,2 19,3 5 3 18 10 SE 1015,9 0,0
06.08.2020 08:00:00 20,4 19,6 6 3 18 10 SE 1015,2 -
06.08.2020 07:00:00 20,5 19,5 5 3 16 9 ESE 1015,1 0,0
06.08.2020 06:00:00 20,6 18,9 3 2 9 5 ENE 1014,4 0,0
06.08.2020 05:00:00 21,0 18,8 4 2 9 5 E 1013,9 0,0
06.08.2020 04:00:00 21,6 18,2 4 2 10 5 E 1013,9 0,0
06.08.2020 03:00:00 22,7 18,5 3 2 17 9 ENE 1013,5 0,0
06.08.2020 02:00:00 23,7 18,8 8 4 18 10 SE 1013,1 -
06.08.2020 01:00:00 24,6 18,3 4 2 21 11 ESE 1012,8 0,0
06.08.2020 00:00:00 25,6 18,0 10 5 24 13 SE 1011,9 0,0
05.08.2020 23:00:00 26,7 17,5 9 5 24 13 SE 1011,2 0,0
05.08.2020 22:00:00 28,2 17,7 8 4 29 16 SE 1010,0 0,0
05.08.2020 21:00:00 30,9 15,7 6 4 23 12 SSW 1008,4 0,0
05.08.2020 20:00:00 34,3 13,8 4 2 11 6 E 1007,2 -
05.08.2020 19:00:00 34,9 13,7 3 2 11 6 ENE 1006,9 0,0
05.08.2020 18:00:00 35,4 13,6 2 1 15 8 SW 1007,0 0,0
05.08.2020 17:00:00 35,4 13,0 3 2 15 8 E 1007,2 0,0
05.08.2020 16:00:00 34,4 13,8 1 1 13 7 S 1007,8 0,0
05.08.2020 15:00:00 33,2 15,3 5 3 14 8 E 1008,9 0,0
05.08.2020 14:00:00 31,4 17,3 2 1 15 8 ENE 1009,9 -
05.08.2020 13:00:00 28,3 17,8 1 1 16 8 SE 1011,2 0,0
05.08.2020 12:00:00 26,2 18,8 5 3 18 10 SSE 1012,1 0,0
05.08.2020 11:00:00 24,2 19,5 8 4 22 12 SE 1012,6 0,0
05.08.2020 10:00:00 23,0 19,8 8 5 24 13 ESE 1012,8 0,0
05.08.2020 09:00:00 21,7 19,4 7 4 21 11 SE 1013,2 0,0
05.08.2020 08:00:00 21,5 19,6 8 4 17 9 SE 1013,0 -
05.08.2020 07:00:00 21,5 19,6 8 4 17 9 SE 1012,7 0,0
05.08.2020 06:00:00 21,5 19,6 5 3 18 10 SE 1012,5 0,0
05.08.2020 05:00:00 21,5 19,6 5 3 18 10 E 1012,5 0,0
05.08.2020 04:00:00 21,3 19,4 4 2 16 9 E 1012,7 0,0
05.08.2020 03:00:00 21,8 19,6 7 4 18 10 SE 1012,7 0,0
05.08.2020 02:00:00 22,5 19,3 6 3 21 12 ESE 1012,8 -
05.08.2020 01:00:00 23,3 19,4 9 5 23 12 SE 1012,3 0,0
05.08.2020 00:00:00 24,3 19,6 10 5 27 14 SE 1011,9 0,0
04.08.2020 23:00:00 25,2 19,3 7 4 24 13 S 1011,5 0,0
04.08.2020 22:00:00 26,5 19,1 7 4 29 16 SSE 1010,4 0,0
04.08.2020 21:00:00 28,7 17,2 14 8 29 15 SE 1009,3 0,0
04.08.2020 20:00:00 33,1 11,6 2 1 15 8 NNW 1007,8 -
04.08.2020 19:00:00 32,8 11,3 3 2 14 7 WNW 1007,8 0,0
04.08.2020 18:00:00 33,6 12,0 4 2 21 11 NNW 1007,8 0,0
04.08.2020 17:00:00 34,0 13,5 1 1 14 8 NW 1007,8 0,0
04.08.2020 16:00:00 32,5 13,2 5 3 18 10 WSW 1009,0 0,0
04.08.2020 15:00:00 31,7 14,3 3 2 13 7 ESE 1009,7 0,0
04.08.2020 14:00:00 29,8 15,5 1 1 19 10 SW 1010,7 -
04.08.2020 13:00:00 29,1 16,3 2 1 16 9 ESE 1011,4 0,0
04.08.2020 12:00:00 26,9 17,7 2 1 15 8 SSE 1012,1 0,0
04.08.2020 11:00:00 24,4 18,5 4 2 11 6 S 1012,7 0,0
04.08.2020 10:00:00 22,6 20,1 5 3 14 7 E 1013,4 0,0
04.08.2020 09:00:00 21,0 20,5 4 2 12 6 ENE 1013,9 0,0
04.08.2020 08:00:00 19,6 19,3 3 1 10 5 ENE 1013,9 -
04.08.2020 07:00:00 19,9 19,1 3 1 10 5 E 1013,5 0,0
04.08.2020 06:00:00 21,0 19,5 3 2 13 7 E 1013,1 0,0
04.08.2020 05:00:00 22,0 20,1 4 2 20 11 SE 1012,5 0,0
04.08.2020 04:00:00 22,1 20,2 8 4 23 13 SE 1012,4 0,0
04.08.2020 03:00:00 22,1 20,2 8 4 20 11 SE 1012,9 0,0
04.08.2020 02:00:00 22,7 20,6 7 4 20 11 SE 1012,5 -
04.08.2020 01:00:00 23,2 20,9 5 3 22 12 SSE 1011,9 0,0
04.08.2020 00:00:00 24,1 20,7 5 3 22 12 SSE 1011,4 0,0
03.08.2020 23:00:00 26,4 17,8 6 3 16 9 SSE 1010,6 0,0
03.08.2020 22:00:00 28,9 7,4 3 2 15 8 W 1009,2 0,0
03.08.2020 21:00:00 30,8 7,8 6 3 21 11 WNW 1008,2 0,0
03.08.2020 20:00:00 32,5 8,7 7 4 23 12 W 1007,2 -
03.08.2020 19:00:00 32,3 9,2 6 3 23 13 WSW 1007,0 0,0
03.08.2020 18:00:00 33,0 11,0 3 2 17 9 W 1007,2 0,0
03.08.2020 17:00:00 33,1 13,2 3 2 15 8 NNE 1007,5 0,0
03.08.2020 16:00:00 31,0 14,1 1 1 13 7 WSW 1008,8 0,0
03.08.2020 15:00:00 30,9 15,7 3 2 15 8 N 1009,4 0,0
03.08.2020 14:00:00 29,3 15,8 4 2 16 8 W 1010,5 -
03.08.2020 13:00:00 28,0 17,2 3 2 16 9 NNE 1011,4 0,0
03.08.2020 12:00:00 25,3 17,0 3 2 11 6 WNW 1012,2 0,0
03.08.2020 11:00:00 23,4 17,6 3 1 13 7 NNW 1012,6 0,0
03.08.2020 10:00:00 21,9 17,5 2 1 12 6 NW 1012,6 0,0
03.08.2020 09:00:00 21,4 19,8 3 2 9 5 WNW 1012,5 0,0
03.08.2020 08:00:00 21,1 19,9 1 0 5 3 W 1011,8 -
03.08.2020 07:00:00 20,7 20,1 0 0 7 4 NNE 1012,3 0,0
03.08.2020 06:00:00 20,8 20,1 0 0 7 4 W 1012,3 0,0
03.08.2020 05:00:00 21,5 19,4 1 0 11 6 ENE 1011,7 0,0
03.08.2020 04:00:00 22,7 19,1 3 2 9 5 ENE 1011,4 0,0
03.08.2020 03:00:00 25,0 8,0 1 0 8 5 ENE 1011,4 0,0
03.08.2020 02:00:00 26,1 8,5 2 1 9 5 S 1010,8 -
03.08.2020 01:00:00 28,3 5,8 2 1 18 10 W 1011,1 0,0
03.08.2020 00:00:00 29,6 6,2 5 3 17 9 WSW 1010,7 0,0
02.08.2020 23:00:00 30,4 6,2 5 3 16 9 W 1009,8 0,0
02.08.2020 22:00:00 31,6 7,3 5 3 16 9 W 1009,1 0,0
02.08.2020 21:00:00 33,6 8,3 7 4 26 14 W 1008,3 0,0
02.08.2020 20:00:00 36,3 9,8 9 5 29 15 W 1007,3 -
02.08.2020 19:00:00 37,2 10,5 9 5 32 17 W 1007,3 0,0
02.08.2020 18:00:00 38,3 10,6 7 4 33 18 WNW 1007,4 0,0
02.08.2020 17:00:00 38,1 11,2 12 7 42 23 W 1007,7 0,0
02.08.2020 16:00:00 37,7 12,3 17 9 41 22 W 1008,6 0,0
02.08.2020 15:00:00 36,8 14,1 12 6 33 18 W 1009,2 0,0
02.08.2020 14:00:00 35,5 15,8 11 6 29 15 W 1010,4 -
02.08.2020 13:00:00 33,4 14,9 9 5 26 14 W 1011,8 0,0
02.08.2020 12:00:00 30,6 14,2 3 1 9 5 E 1012,7 0,0
02.08.2020 11:00:00 27,1 12,3 1 1 7 4 W 1014,1 0,0
02.08.2020 10:00:00 24,2 10,5 4 2 8 5 E 1014,7 0,0
02.08.2020 09:00:00 21,5 8,8 1 1 6 3 NE 1015,5 0,0
02.08.2020 08:00:00 21,4 6,1 2 1 6 4 N 1015,4 -
02.08.2020 07:00:00 24,5 5,8 1 1 14 8 W 1014,5 0,0
02.08.2020 06:00:00 25,4 6,1 6 4 15 8 WSW 1013,8 0,0
02.08.2020 05:00:00 25,3 5,0 6 4 16 9 WSW 1013,7 0,0
02.08.2020 04:00:00 25,6 4,1 6 3 17 9 WSW 1013,8 0,0
02.08.2020 03:00:00 26,6 4,3 7 4 17 9 WSW 1014,2 0,0
02.08.2020 02:00:00 25,6 3,6 5 3 15 8 SW 1014,6 -
02.08.2020 01:00:00 26,6 4,3 4 2 12 7 SW 1014,5 0,0
02.08.2020 00:00:00 28,4 4,6 7 4 14 8 WSW 1013,7 0,0
01.08.2020 23:00:00 30,3 4,8 5 3 15 8 W 1013,0 0,0
01.08.2020 22:00:00 32,4 5,8 5 3 15 8 W 1011,9 0,0
01.08.2020 21:00:00 35,1 8,0 7 4 24 13 W 1010,8 0,0
01.08.2020 20:00:00 37,3 9,8 7 4 25 13 W 1009,9 -
01.08.2020 19:00:00 37,9 11,1 7 4 29 15 W 1010,0 0,0
01.08.2020 18:00:00 38,8 12,5 8 4 34 18 W 1010,2 0,0
01.08.2020 17:00:00 38,4 13,6 11 6 36 19 WNW 1010,8 0,0
01.08.2020 16:00:00 37,9 14,4 10 5 30 16 W 1010,9 0,0
01.08.2020 15:00:00 37,3 13,9 10 6 30 16 W 1012,0 0,0
01.08.2020 14:00:00 36,1 15,3 11 6 32 17 W 1012,6 -
01.08.2020 13:00:00 34,7 14,6 8 5 29 16 W 1013,5 0,0
01.08.2020 12:00:00 33,2 15,3 8 4 24 13 W 1014,2 0,0
01.08.2020 11:00:00 29,9 17,7 2 1 10 5 NNW 1014,8 0,0
01.08.2020 10:00:00 28,3 17,2 3 1 13 7 NW 1015,1 0,0
01.08.2020 09:00:00 24,7 17,7 0 0 5 3 SW 1015,8 0,0
01.08.2020 08:00:00 23,7 17,2 2 1 5 3 W 1016,0 -
01.08.2020 07:00:00 23,6 16,4 2 1 5 3 ENE 1015,6 0,0
01.08.2020 06:00:00 23,8 15,8 0 0 4 2 E 1015,3 0,0
01.08.2020 05:00:00 24,7 16,6 1 0 6 3 ENE 1014,4 0,0
01.08.2020 04:00:00 25,6 17,2 2 1 9 5 ENE 1014,3 0,0
01.08.2020 03:00:00 27,3 17,1 3 1 8 4 E 1014,1 0,0
01.08.2020 02:00:00 28,4 17,0 0 0 7 4 SE 1013,8 -

tt = temperature
td = dewpoint
ff = wind speed
fx = gusts
dd = wind direction
ppp = reduced air pressure
rr = precipitation

Next stations